Time;durP1;ratioP1;P1;durP2;ratioP2;P2;SDS_P1;SDS_P2;PMS_P1;PMS_P2;Temp;Humidity;BMP_temperature;BMP_pressure;BME280_temperature;BME280_humidity;BME280_pressure;Samples;Min_cycle;Max_cycle;Signal;HPM_P1;HPM_P2
2022/11/04 00:01:38;;;;;;;6.70;4.63;;;;;;;15.32;100.00;95298.13;5099893;28;20083;-43
2022/11/04 00:04:07;;;;;;;9.77;5.65;;;;;;;15.71;100.00;95310.66;5098718;28;20075;-42
2022/11/04 00:06:35;;;;;;;7.60;3.92;;;;;;;15.65;100.00;95301.63;5102513;28;20087;-48
2022/11/04 00:09:05;;;;;;;8.27;4.00;;;;;;;15.52;100.00;95311.41;5098189;28;20076;-46
2022/11/04 00:14:19;;;;;;;7.55;3.88;;;;;;;15.95;100.00;95340.28;5093995;28;20082;-46
2022/11/04 00:30:36;;;;;;;7.13;4.57;;;;;;;16.58;100.00;95356.56;5097448;28;20079;-41
2022/11/04 00:35:53;;;;;;;6.40;4.55;;;;;;;16.37;100.00;95366.41;5099034;28;20076;-43
2022/11/04 00:38:22;;;;;;;4.97;3.50;;;;;;;16.26;100.00;95372.38;5101992;28;20078;-50
2022/11/04 00:40:50;;;;;;;6.35;4.07;;;;;;;16.35;100.00;95373.81;5096779;28;20076;-50
2022/11/04 00:43:19;;;;;;;4.18;2.83;;;;;;;16.13;100.00;95367.88;5100416;28;20092;-44
2022/11/04 00:45:47;;;;;;;6.95;4.75;;;;;;;16.69;100.00;95381.72;5099166;28;20097;-49
2022/11/04 00:48:17;;;;;;;5.68;3.92;;;;;;;16.83;100.00;95372.72;5102784;28;20083;-44
2022/11/04 00:50:45;;;;;;;6.60;3.33;;;;;;;16.30;100.00;95386.09;5096906;28;20079;-45
2022/11/04 00:53:13;;;;;;;5.97;3.70;;;;;;;16.68;100.00;95383.56;5100727;28;20082;-46
2022/11/04 00:55:42;;;;;;;5.40;2.90;;;;;;;16.37;100.00;95384.22;5097648;28;20086;-41
2022/11/04 00:58:10;;;;;;;6.78;3.15;;;;;;;16.61;100.00;95383.56;5098623;28;20079;-43
2022/11/04 01:00:39;;;;;;;4.85;2.47;;;;;;;16.31;100.00;95388.56;5098515;28;20090;-42
2022/11/04 01:03:07;;;;;;;4.90;3.35;;;;;;;16.19;100.00;95402.69;5099643;28;20086;-45
2022/11/04 01:05:38;;;;;;;2.55;1.88;;;;;;;16.02;100.00;95379.16;5093103;28;20075;-50
2022/11/04 01:08:06;;;;;;;;;;;;;;;16.44;100.00;95414.31;5100276;28;20071;-41
2022/11/04 01:10:35;;;;;;;3.30;1.88;;;;;;;15.92;100.00;95408.00;5098351;28;19970;-42
2022/11/04 01:13:03;;;;;;;3.40;1.98;;;;;;;15.96;100.00;95405.75;5097437;28;20473;-47
2022/11/04 01:15:32;;;;;;;3.63;2.30;;;;;;;15.99;100.00;95421.28;5099596;28;20075;-47
2022/11/04 01:18:00;;;;;;;3.28;2.40;;;;;;;16.40;100.00;95423.72;5100017;28;20056;-45
2022/11/04 01:20:29;;;;;;;5.55;2.80;;;;;;;16.54;100.00;95429.84;5094290;28;20079;-45
2022/11/04 01:22:59;;;;;;;5.30;2.08;;;;;;;16.16;100.00;95432.34;5103329;28;20078;-41
2022/11/04 01:25:27;;;;;;;4.50;2.10;;;;;;;16.14;100.00;95437.88;5096720;28;20075;-46
2022/11/04 01:27:55;;;;;;;3.72;1.55;;;;;;;15.99;100.00;95442.56;5102124;28;20500;-48
2022/11/04 01:30:24;;;;;;;3.03;2.08;;;;;;;15.82;100.00;95434.97;5096448;28;20165;-47
2022/11/04 01:32:52;;;;;;;3.60;1.92;;;;;;;16.09;100.00;95442.97;5100335;28;20492;-45
2022/11/04 01:35:21;;;;;;;2.97;1.55;;;;;;;15.86;100.00;95452.19;5095573;28;20076;-44
2022/11/04 01:37:49;;;;;;;4.03;1.98;;;;;;;16.04;100.00;95438.28;5098069;28;20466;-42
2022/11/04 01:40:19;;;;;;;2.40;1.65;;;;;;;15.88;100.00;95451.97;5097787;28;20094;-42
2022/11/04 01:42:47;;;;;;;4.07;2.57;;;;;;;16.31;100.00;95444.44;5096548;28;20075;-44
2022/11/04 01:45:17;;;;;;;3.88;1.85;;;;;;;16.21;100.00;95438.69;5098849;28;20082;-47
2022/11/04 01:47:49;;;;;;;4.17;1.77;;;;;;;16.10;100.00;95447.25;5098149;28;20086;-47
2022/11/04 01:50:20;;;;;;;3.83;2.08;;;;;;;16.23;100.00;95436.63;5098669;28;20672;-42
2022/11/04 01:52:51;;;;;;;4.28;2.03;;;;;;;16.81;100.00;95444.78;5102193;28;20079;-43
2022/11/04 01:55:26;;;;;;;3.05;2.17;;;;;;;16.33;100.00;95447.69;5099596;28;20078;-48
2022/11/04 01:57:58;;;;;;;2.38;1.63;;;;;;;16.21;100.00;95425.41;5106013;28;20080;-43
2022/11/04 02:00:27;;;;;;;2.05;1.42;;;;;;;15.90;100.00;95429.47;5098757;28;20473;-41
2022/11/04 02:02:59;;;;;;;3.10;2.20;;;;;;;16.75;100.00;95432.31;5097949;28;20095;-42
2022/11/04 02:05:29;;;;;;;3.58;1.98;;;;;;;16.28;100.00;95425.41;5097453;28;20071;-42
2022/11/04 02:08:00;;;;;;;4.32;2.00;;;;;;;16.83;100.00;95415.31;5103573;28;20529;-48
2022/11/04 02:10:31;;;;;;;4.55;1.95;;;;;;;16.78;100.00;95420.44;5101841;28;20076;-47
2022/11/04 02:12:59;;;;;;;3.58;2.20;;;;;;;16.25;100.00;95418.63;5098905;28;20071;-44
2022/11/04 02:15:36;;;;;;;3.15;1.85;;;;;;;16.63;100.00;95415.31;5095613;28;20083;-40
2022/11/04 02:18:13;;;;;;;2.33;1.70;;;;;;;16.74;100.00;95417.38;5103620;28;20076;-42
2022/11/04 02:20:53;;;;;;;5.80;2.00;;;;;;;17.08;100.00;95407.44;5096987;28;20559;-49
2022/11/04 02:23:56;;;;;;;3.35;1.95;;;;;;;16.98;100.00;95415.84;5103567;28;20126;-44
2022/11/04 02:26:57;;;;;;;4.82;2.00;;;;;;;16.99;100.00;95422.00;5102514;28;20079;-46
2022/11/04 02:29:58;;;;;;;4.35;2.00;;;;;;;16.74;100.00;95412.03;5095032;28;20079;-46
2022/11/04 02:32:34;;;;;;;5.55;2.20;;;;;;;16.99;100.00;95430.81;5085323;28;20079;-42
2022/11/04 02:35:05;;;;;;;3.28;2.10;;;;;;;16.99;100.00;95424.66;5106752;28;20463;-43
2022/11/04 02:37:41;;;;;;;2.70;1.98;;;;;;;16.75;100.00;95426.16;5105886;28;20086;-42
2022/11/04 02:40:19;;;;;;;2.60;1.80;;;;;;;16.72;100.00;95431.88;5097036;28;20646;-43
2022/11/04 02:42:53;;;;;;;3.60;2.10;;;;;;;17.10;100.00;95432.00;5101323;28;20189;-43
2022/11/04 02:45:25;;;;;;;3.10;2.00;;;;;;;16.97;100.00;95426.75;5097795;28;20526;-49
2022/11/04 02:47:56;;;;;;;3.30;1.73;;;;;;;17.09;100.00;95427.69;5099060;28;20079;-41
2022/11/04 02:50:29;;;;;;;3.40;1.63;;;;;;;17.26;100.00;95428.88;5100359;28;20092;-43
2022/11/04 02:53:02;;;;;;;2.47;1.67;;;;;;;16.90;100.00;95437.41;5101428;28;20087;-41
2022/11/04 02:55:33;;;;;;;3.10;1.90;;;;;;;16.81;100.00;95428.81;5095110;28;20088;-45
2022/11/04 02:58:03;;;;;;;2.60;1.60;;;;;;;17.41;100.00;95428.63;5104328;28;20508;-44
2022/11/04 03:00:34;;;;;;;3.13;1.70;;;;;;;17.21;100.00;95418.03;5098581;28;20106;-40
2022/11/04 03:03:06;;;;;;;3.22;1.50;;;;;;;16.91;100.00;95428.38;5103429;28;20454;-45
2022/11/04 03:05:37;;;;;;;4.10;1.42;;;;;;;16.61;100.00;95422.69;5101893;28;20086;-42
2022/11/04 03:08:09;;;;;;;2.45;1.50;;;;;;;16.78;100.00;95431.06;5102509;28;20534;-43
2022/11/04 03:10:40;;;;;;;2.33;1.48;;;;;;;16.23;100.00;95422.50;5098894;28;20086;-41
2022/11/04 03:13:13;;;;;;;1.63;1.02;;;;;;;15.80;100.00;95429.03;5100149;28;20079;-41
2022/11/04 03:15:50;;;;;;;1.50;1.00;;;;;;;16.06;100.00;95427.44;5099406;28;20079;-43
2022/11/04 03:18:23;;;;;;;2.20;1.20;;;;;;;16.68;100.00;95423.47;5095682;28;20076;-42
2022/11/04 03:20:52;;;;;;;2.10;1.30;;;;;;;16.99;100.00;95414.00;5100418;28;20083;-43
2022/11/04 03:23:20;;;;;;;2.05;1.08;;;;;;;16.61;100.00;95420.84;5101177;28;20091;-44
2022/11/04 03:25:52;;;;;;;2.42;1.23;;;;;;;16.79;100.00;95414.06;5098924;28;20087;-42
2022/11/04 03:28:26;;;;;;;3.08;1.10;;;;;;;16.68;100.00;95412.84;5099571;28;20794;-43
2022/11/04 03:30:59;;;;;;;1.52;1.00;;;;;;;16.84;100.00;95408.94;5096177;28;20133;-44
2022/11/04 03:33:33;;;;;;;1.67;0.98;;;;;;;17.14;100.00;95417.25;5096596;28;20079;-44
2022/11/04 03:36:03;;;;;;;1.83;1.10;;;;;;;16.68;100.00;95415.50;5099133;28;20475;-45
2022/11/04 03:38:31;;;;;;;1.53;0.90;;;;;;;17.27;100.00;95427.84;5099882;28;20079;-41
2022/11/04 03:41:01;;;;;;;1.63;0.90;;;;;;;17.03;100.00;95432.03;5101589;28;20497;-40
2022/11/04 03:43:30;;;;;;;2.25;0.98;;;;;;;16.90;100.00;95432.09;5098884;28;20556;-41
2022/11/04 03:46:00;;;;;;;1.92;1.10;;;;;;;17.55;100.00;95432.03;5100369;28;20086;-43
2022/11/04 03:48:28;;;;;;;1.20;0.90;;;;;;;16.93;100.00;95430.81;5095437;28;20090;-46
2022/11/04 03:50:58;;;;;;;3.38;1.00;;;;;;;17.85;100.00;95426.94;5096996;28;20075;-43
2022/11/04 03:53:28;;;;;;;1.10;0.90;;;;;;;17.87;100.00;95424.06;5104432;28;20136;-44
2022/11/04 03:56:11;;;;;;;3.40;1.00;;;;;;;17.92;100.00;95426.91;5096362;28;20072;-41
2022/11/04 03:58:44;;;;;;;1.23;0.90;;;;;;;17.98;100.00;95432.19;5096267;28;20087;-47
2022/11/04 04:01:24;;;;;;;1.40;0.90;;;;;;;17.39;100.00;95430.66;5100095;28;20086;-45
2022/11/04 04:03:56;;;;;;;1.10;0.90;;;;;;;16.72;100.00;95440.66;5098001;28;20079;-45
2022/11/04 04:06:27;;;;;;;4.95;0.98;;;;;;;17.55;100.00;95432.84;5099419;28;20076;-41
2022/11/04 04:08:57;;;;;;;1.42;1.00;;;;;;;17.74;100.00;95431.09;5095471;28;20078;-44
2022/11/04 04:11:32;;;;;;;0.68;0.68;;;;;;;17.74;100.00;95424.94;5101756;28;20083;-43
2022/11/04 04:14:04;;;;;;;1.08;0.80;;;;;;;17.97;100.00;95417.22;5104729;28;20086;-41
2022/11/04 04:16:35;;;;;;;1.58;0.90;;;;;;;17.75;100.00;95423.88;5098961;28;20477;-48
2022/11/04 04:19:06;;;;;;;0.90;0.73;;;;;;;17.24;100.00;95414.94;5093177;28;20082;-41
2022/11/04 04:21:39;;;;;;;0.88;0.80;;;;;;;17.24;100.00;95409.63;5099135;28;20080;-44
2022/11/04 04:29:43;;;;;;;1.00;0.80;;;;;;;17.66;100.00;95407.34;5097375;28;20075;-49
2022/11/04 04:32:13;;;;;;;0.80;0.75;;;;;;;17.40;100.00;95407.50;5094932;28;20079;-43
2022/11/04 04:34:42;;;;;;;1.88;0.70;;;;;;;17.04;100.00;95411.56;5096536;28;20080;-43
2022/11/04 04:37:14;;;;;;;2.15;0.75;;;;;;;17.26;100.00;95415.53;5094577;28;20075;-46
2022/11/04 04:45:22;;;;;;;0.73;0.70;;;;;;;16.62;100.00;95416.34;5101211;28;20079;-47
2022/11/04 04:47:52;;;;;;;0.95;0.70;;;;;;;16.80;100.00;95395.22;5098326;28;20111;-44
2022/11/04 04:50:21;;;;;;;0.85;0.65;;;;;;;16.04;100.00;95394.91;5096359;28;20630;-41
2022/11/04 04:52:52;;;;;;;0.88;0.70;;;;;;;16.52;100.00;95389.34;5095048;28;20082;-40
2022/11/04 04:55:20;;;;;;;0.70;0.60;;;;;;;16.80;100.00;95379.25;5095976;28;20640;-47
2022/11/04 04:57:48;;;;;;;0.80;0.73;;;;;;;16.85;100.00;95403.41;5099208;28;20075;-48
2022/11/04 05:00:19;;;;;;;0.70;0.70;;;;;;;16.33;100.00;95417.59;5079343;28;20071;-42
2022/11/04 05:02:48;;;;;;;1.50;0.80;;;;;;;16.85;100.00;95423.88;5093553;28;20133;-43
2022/11/04 05:05:18;;;;;;;2.80;0.70;;;;;;;16.31;100.00;95436.44;5093926;28;20087;-41
2022/11/04 05:07:47;;;;;;;0.70;0.60;;;;;;;17.15;100.00;95434.03;5095667;28;20540;-42
2022/11/04 05:10:16;;;;;;;2.28;0.60;;;;;;;17.40;100.00;95432.28;5097356;28;20446;-41
2022/11/04 05:15:31;;;;;;;0.85;0.63;;;;;;;17.04;100.00;95424.88;5100128;28;20087;-43
2022/11/04 05:18:03;;;;;;;1.77;0.65;;;;;;;17.11;100.00;95420.34;5101015;28;20078;-48
2022/11/04 05:20:33;;;;;;;4.20;0.80;;;;;;;16.67;100.00;95434.34;5099790;28;20078;-43
2022/11/04 05:23:01;;;;;;;2.45;0.80;;;;;;;16.47;100.00;95439.69;5099065;28;20075;-42
2022/11/04 05:25:29;;;;;;;0.90;0.70;;;;;;;16.63;100.00;95443.78;5091892;28;20076;-46
2022/11/04 05:28:00;;;;;;;0.68;0.68;;;;;;;16.85;100.00;95450.50;5091168;28;20086;-46
2022/11/04 05:30:28;;;;;;;0.82;0.65;;;;;;;16.43;100.00;95447.28;5093654;28;20306;-44
2022/11/04 05:32:57;;;;;;;0.63;0.50;;;;;;;16.48;100.00;95442.16;5098000;28;20544;-43
2022/11/04 05:35:33;;;;;;;0.50;0.50;;;;;;;16.37;100.00;95426.81;5098818;28;20086;-41
2022/11/04 05:38:02;;;;;;;1.77;0.75;;;;;;;17.00;100.00;95429.78;5096355;28;20067;-44
2022/11/04 05:40:30;;;;;;;0.82;0.65;;;;;;;16.64;100.00;95430.25;5095702;28;20075;-45
2022/11/04 05:42:59;;;;;;;0.52;0.50;;;;;;;16.22;100.00;95420.91;5101556;28;20079;-42
2022/11/04 05:45:28;;;;;;;1.13;0.60;;;;;;;16.28;100.00;95430.72;5095666;28;20098;-43
2022/11/04 05:48:00;;;;;;;1.58;0.73;;;;;;;16.20;100.00;95437.03;5096447;28;20470;-49
2022/11/04 05:50:28;;;;;;;0.57;0.55;;;;;;;16.51;100.00;95438.25;5092919;28;20072;-41
2022/11/04 05:52:58;;;;;;;0.88;0.60;;;;;;;16.08;100.00;95444.81;5090189;28;20526;-42
2022/11/04 05:55:27;;;;;;;0.88;0.60;;;;;;;16.50;100.00;95452.59;5096804;28;20071;-43
2022/11/04 05:57:58;;;;;;;0.90;0.50;;;;;;;17.09;100.00;95449.81;5098221;28;20079;-44
2022/11/04 06:00:27;;;;;;;1.00;0.63;;;;;;;16.73;100.00;95450.31;5096963;28;20079;-44
2022/11/04 06:02:57;;;;;;;1.63;0.70;;;;;;;16.62;100.00;95440.31;5093477;28;20088;-41
2022/11/04 06:05:25;;;;;;;0.73;0.50;;;;;;;16.57;100.00;95446.22;5098898;28;20091;-41
2022/11/04 06:07:54;;;;;;;1.70;0.60;;;;;;;16.85;100.00;95435.34;5095824;28;20076;-41
2022/11/04 06:10:24;;;;;;;1.33;0.60;;;;;;;16.25;100.00;95447.91;5094671;28;20083;-45
2022/11/04 06:12:53;;;;;;;0.70;0.50;;;;;;;16.16;100.00;95459.75;5092248;28;20084;-46
2022/11/04 06:15:21;;;;;;;1.38;0.60;;;;;;;15.91;100.00;95467.50;5094956;28;20500;-48
2022/11/04 06:17:49;;;;;;;3.40;0.93;;;;;;;15.93;100.00;95475.28;5093660;28;20082;-42
2022/11/04 06:20:18;;;;;;;1.00;0.50;;;;;;;15.97;100.00;95468.56;5097144;28;20084;-44
2022/11/04 06:22:46;;;;;;;1.65;0.63;;;;;;;15.97;100.00;95477.34;5096999;28;20098;-43
2022/11/04 06:25:14;;;;;;;3.92;0.98;;;;;;;16.02;100.00;95490.03;5094613;28;20083;-42
2022/11/04 06:27:44;;;;;;;0.98;0.50;;;;;;;15.80;100.00;95498.16;5090662;28;20079;-42
2022/11/04 06:30:13;;;;;;;1.50;0.70;;;;;;;15.84;100.00;95496.75;5096843;28;20075;-45
2022/11/04 06:32:41;;;;;;;3.83;0.80;;;;;;;16.58;100.00;95497.63;5094801;28;20074;-42
2022/11/04 06:35:27;;;;;;;1.38;0.70;;;;;;;16.69;100.00;95502.34;5097072;28;20067;-42
2022/11/04 06:37:56;;;;;;;2.45;0.70;;;;;;;16.16;100.00;95491.66;5099200;28;20075;-42
2022/11/04 06:40:25;;;;;;;3.70;0.73;;;;;;;16.20;100.00;95500.88;5093350;28;20090;-48
2022/11/04 06:42:55;;;;;;;3.90;1.20;;;;;;;15.86;100.00;95497.38;5092985;28;20083;-42
2022/11/04 06:45:23;;;;;;;1.03;0.80;;;;;;;16.72;100.00;95482.44;5101172;28;20080;-45
2022/11/04 06:47:52;;;;;;;0.70;0.50;;;;;;;16.48;100.00;95484.75;5100648;28;20517;-45
2022/11/04 06:50:20;;;;;;;1.98;0.93;;;;;;;16.13;100.00;95479.59;5101689;28;20157;-44
2022/11/04 06:52:48;;;;;;;2.17;0.90;;;;;;;16.56;100.00;95478.38;5098868;28;20071;-46
2022/11/04 06:55:17;;;;;;;1.73;0.80;;;;;;;16.96;100.00;95465.84;5101699;28;20079;-41
2022/11/04 06:57:45;;;;;;;2.20;0.80;;;;;;;17.15;100.00;95466.00;5097118;28;20094;-47
2022/11/04 07:00:15;;;;;;;1.52;0.95;;;;;;;17.18;100.00;95463.75;5097421;28;20079;-46
2022/11/04 07:02:44;;;;;;;2.55;1.00;;;;;;;17.71;100.00;95463.50;5100105;28;20083;-46
2022/11/04 07:05:13;;;;;;;2.88;0.90;;;;;;;17.70;100.00;95456.53;5099304;28;20082;-50
2022/11/04 07:07:41;;;;;;;2.95;0.80;;;;;;;17.19;100.00;95448.56;5099546;28;20082;-44
2022/11/04 07:10:10;;;;;;;3.65;1.08;;;;;;;17.68;100.00;95439.94;5098803;28;20079;-46
2022/11/04 07:12:38;;;;;;;4.82;0.90;;;;;;;17.38;100.00;95446.84;5094023;28;20138;-45
2022/11/04 07:15:08;;;;;;;2.08;0.85;;;;;;;17.02;100.00;95443.69;5098277;28;20529;-45
2022/11/04 07:17:37;;;;;;;2.90;0.80;;;;;;;17.39;100.00;95448.50;5096192;28;20157;-45
2022/11/04 07:20:07;;;;;;;3.72;1.20;;;;;;;17.78;100.00;95453.63;5101121;28;20462;-47
2022/11/04 07:22:35;;;;;;;3.58;1.05;;;;;;;17.75;100.00;95461.22;5098042;28;20079;-50
2022/11/04 07:25:04;;;;;;;1.88;0.98;;;;;;;18.13;100.00;95471.06;5095022;28;20075;-45
2022/11/04 07:27:32;;;;;;;1.42;1.20;;;;;;;17.78;100.00;95474.16;5095199;28;20071;-46
2022/11/04 07:30:01;;;;;;;2.15;1.10;;;;;;;17.52;100.00;95478.59;5099421;28;20084;-47
2022/11/04 07:32:30;;;;;;;3.10;1.02;;;;;;;18.20;100.00;95487.84;5099347;28;20459;-47
2022/11/04 07:35:01;;;;;;;1.58;0.90;;;;;;;17.29;100.00;95495.06;5096056;28;20125;-47
2022/11/04 07:37:29;;;;;;;1.23;0.80;;;;;;;17.15;100.00;95496.13;5095936;28;20083;-51
2022/11/04 07:39:58;;;;;;;1.38;0.80;;;;;;;17.63;100.00;95498.41;5098263;28;20083;-46
2022/11/04 07:42:26;;;;;;;1.40;0.93;;;;;;;17.50;100.00;95495.81;5100487;28;20532;-44
2022/11/04 07:44:54;;;;;;;1.25;0.80;;;;;;;17.86;100.00;95505.94;5097864;28;20083;-44
2022/11/04 07:47:23;;;;;;;2.42;1.30;;;;;;;17.73;100.00;95521.97;5099211;28;20087;-46
2022/11/04 07:49:51;;;;;;;2.45;1.30;;;;;;;18.06;100.00;95521.81;5099759;28;20112;-50
2022/11/04 07:52:21;;;;;;;1.27;0.77;;;;;;;17.68;100.00;95519.91;5098766;28;20084;-43
2022/11/04 07:54:49;;;;;;;1.90;0.83;;;;;;;16.98;100.00;95524.25;5102152;28;20084;-43
2022/11/04 07:57:18;;;;;;;1.75;0.90;;;;;;;17.79;100.00;95524.63;5098708;28;20095;-47
2022/11/04 07:59:46;;;;;;;4.28;1.30;;;;;;;17.01;100.00;95526.50;5101132;28;20075;-46
2022/11/04 08:02:14;;;;;;;1.58;0.90;;;;;;;16.87;100.00;95532.88;5094940;28;20075;-43
2022/11/04 08:04:49;;;;;;;2.60;1.20;;;;;;;16.92;100.00;95541.03;5099281;28;20084;-48
2022/11/04 08:07:22;;;;;;;3.05;1.30;;;;;;;16.64;100.00;95533.25;5098449;28;20094;-45
2022/11/04 08:09:50;;;;;;;3.33;1.20;;;;;;;16.82;100.00;95538.78;5098005;28;20466;-46
2022/11/04 08:12:21;;;;;;;3.40;1.13;;;;;;;16.30;100.00;95525.25;5099982;28;20493;-42
2022/11/04 08:14:49;;;;;;;1.50;0.90;;;;;;;16.88;100.00;95515.84;5103285;28;20072;-44
2022/11/04 08:17:17;;;;;;;2.08;1.05;;;;;;;17.47;100.00;95502.38;5103448;28;20083;-42
2022/11/04 08:19:46;;;;;;;1.95;1.13;;;;;;;17.44;100.00;95488.66;5101558;28;20086;-46
2022/11/04 08:22:14;;;;;;;1.25;0.90;;;;;;;17.64;100.00;95496.56;5100850;28;20079;-49
2022/11/04 08:24:46;;;;;;;3.85;0.98;;;;;;;17.31;100.00;95505.53;5094506;28;20084;-46
2022/11/04 08:27:14;;;;;;;5.78;1.10;;;;;;;17.72;100.00;95494.50;5099845;28;20071;-45
2022/11/04 08:29:42;;;;;;;2.85;1.08;;;;;;;17.39;100.00;95488.47;5093291;28;20083;-47
2022/11/04 08:32:11;;;;;;;3.05;0.82;;;;;;;16.59;100.00;95497.44;5098363;28;20074;-45
2022/11/04 08:34:40;;;;;;;1.63;0.90;;;;;;;16.81;100.00;95482.06;5095564;28;20083;-49
2022/11/04 08:37:09;;;;;;;3.80;1.02;;;;;;;17.50;100.00;95461.16;5093483;28;20542;-44
2022/11/04 08:39:37;;;;;;;2.33;1.00;;;;;;;17.52;100.00;95461.78;5101861;28;20969;-45
2022/11/04 08:42:07;;;;;;;2.40;1.10;;;;;;;17.37;100.00;95463.88;5102646;28;20108;-44
2022/11/04 08:44:35;;;;;;;2.03;0.90;;;;;;;17.61;100.00;95467.66;5099340;28;20477;-48
2022/11/04 08:47:04;;;;;;;2.65;1.10;;;;;;;17.55;100.00;95470.16;5098735;28;20477;-45
2022/11/04 08:49:32;;;;;;;3.63;1.20;;;;;;;18.17;100.00;95467.78;5098204;28;20082;-46
2022/11/04 08:52:01;;;;;;;2.22;1.23;;;;;;;18.00;100.00;95472.81;5092657;28;20485;-45
2022/11/04 08:54:29;;;;;;;2.67;1.27;;;;;;;18.12;100.00;95475.59;5095832;28;20051;-48
2022/11/04 08:56:57;;;;;;;2.95;1.00;;;;;;;17.67;100.00;95464.16;5099691;28;20075;-45
2022/11/04 08:59:27;;;;;;;2.65;1.02;;;;;;;17.23;100.00;95455.13;5102250;28;20086;-46
2022/11/04 09:01:56;;;;;;;3.42;1.10;;;;;;;17.68;100.00;95431.94;5097919;28;20076;-46
2022/11/04 09:04:24;;;;;;;2.35;1.10;;;;;;;17.37;100.00;95442.56;5098168;28;20102;-43
2022/11/04 09:06:55;;;;;;;3.80;1.00;;;;;;;18.12;100.00;95451.59;5094698;28;20079;-47
2022/11/04 09:09:23;;;;;;;1.98;1.20;;;;;;;18.59;100.00;95456.56;5096623;28;20545;-44
2022/11/04 09:11:52;;;;;;;8.23;1.42;;;;;;;18.23;100.00;95456.22;5103938;28;20090;-50
2022/11/04 09:14:22;;;;;;;3.25;1.27;;;;;;;18.30;100.00;95456.16;5095493;28;20614;-47
2022/11/04 09:16:52;;;;;;;1.33;1.20;;;;;;;17.58;100.00;95460.09;5105168;28;20083;-45
2022/11/04 09:19:23;;;;;;;4.50;1.38;;;;;;;17.40;100.00;95439.47;5099519;28;20079;-45
2022/11/04 09:21:51;;;;;;;4.10;1.40;;;;;;;18.02;100.00;95437.91;5096611;28;20090;-44
2022/11/04 09:24:20;;;;;;;3.45;1.30;;;;;;;17.14;100.00;95441.22;5097190;28;20079;-49
2022/11/04 09:26:48;;;;;;;2.92;1.58;;;;;;;17.13;100.00;95439.56;5102997;28;20575;-46
2022/11/04 09:29:16;;;;;;;2.20;1.40;;;;;;;17.31;100.00;95442.38;5095256;28;20083;-41
2022/11/04 09:31:45;;;;;;;2.40;1.20;;;;;;;16.97;100.00;95440.88;5092746;28;20086;-49
2022/11/04 09:34:14;;;;;;;2.78;1.05;;;;;;;16.92;100.00;95434.53;5097278;28;20467;-54
2022/11/04 09:36:43;;;;;;;3.37;1.00;;;;;;;16.91;100.00;95433.72;5100903;28;20108;-46
2022/11/04 09:39:12;;;;;;;2.38;1.15;;;;;;;17.39;100.00;95419.19;5097888;28;20082;-45
2022/11/04 09:42:01;;;;;;;2.78;1.10;;;;;;;17.39;100.00;95427.19;5098633;28;20652;-44
2022/11/04 09:44:35;;;;;;;2.13;1.20;;;;;;;16.72;100.00;95432.69;5102537;28;20086;-48
2022/11/04 09:47:24;;;;;;;2.70;1.20;;;;;;;16.60;100.00;95443.16;5101548;28;20086;-48
2022/11/04 09:49:57;;;;;;;2.00;1.38;;;;;;;17.29;100.00;95441.78;5097267;28;20083;-47
2022/11/04 09:52:28;;;;;;;1.80;1.30;;;;;;;17.86;100.00;95446.41;5091086;28;20084;-47
2022/11/04 09:55:01;;;;;;;2.38;1.33;;;;;;;17.73;100.00;95441.97;5098317;28;20071;-43
2022/11/04 09:57:31;;;;;;;2.22;1.17;;;;;;;17.41;100.00;95438.44;5094463;28;20538;-46
2022/11/04 10:00:00;;;;;;;2.90;1.48;;;;;;;17.68;100.00;95431.13;5100982;28;20466;-49
2022/11/04 10:02:41;;;;;;;2.10;1.40;;;;;;;17.31;100.00;95445.06;5098069;28;20086;-43
2022/11/04 10:05:19;;;;;;;2.70;1.30;;;;;;;17.71;100.00;95439.50;5096910;28;20563;-46
2022/11/04 10:08:00;;;;;;;3.33;1.70;;;;;;;18.74;100.00;95443.69;5100591;28;20082;-43
2022/11/04 10:10:34;;;;;;;1.77;1.30;;;;;;;18.13;100.00;95444.38;5097363;28;20537;-46
2022/11/04 10:13:17;;;;;;;1.58;1.10;;;;;;;18.17;100.00;95445.59;5102001;28;20075;-47
2022/11/04 10:16:04;;;;;;;3.08;1.30;;;;;;;17.66;100.00;95439.34;5098181;28;20593;-46
2022/11/04 10:19:04;;;;;;;2.50;1.30;;;;;;;18.85;100.00;95432.28;5101078;28;20083;-47
2022/11/04 10:21:44;;;;;;;2.45;1.30;;;;;;;18.55;100.00;95432.16;5101758;28;20086;-49
2022/11/04 10:24:19;;;;;;;2.58;1.48;;;;;;;18.84;100.00;95432.50;5099794;28;20071;-46
2022/11/04 10:26:51;;;;;;;2.70;1.33;;;;;;;18.73;100.00;95432.19;5106809;28;20513;-44
2022/11/04 10:29:30;;;;;;;1.73;1.40;;;;;;;18.89;100.00;95436.16;5098790;28;20072;-43
2022/11/04 10:32:02;;;;;;;2.50;1.50;;;;;;;18.18;100.00;95437.38;5103395;28;20086;-45
2022/11/04 10:34:35;;;;;;;3.55;1.55;;;;;;;18.67;100.00;95434.91;5102871;28;20114;-45
2022/11/04 10:37:09;;;;;;;4.60;1.33;;;;;;;18.95;100.00;95423.75;5100372;28;20086;-44
2022/11/04 10:39:41;;;;;;;2.95;1.67;;;;;;;18.24;100.00;95425.84;5104660;28;20071;-45
2022/11/04 10:42:10;;;;;;;4.57;1.63;;;;;;;18.29;100.00;95422.50;5100922;28;20075;-47
2022/11/04 10:44:39;;;;;;;3.35;1.70;;;;;;;18.46;100.00;95410.25;5097179;28;20058;-43
2022/11/04 10:47:17;;;;;;;2.78;1.58;;;;;;;17.80;100.00;95400.13;5099240;28;20091;-46
2022/11/04 10:50:12;;;;;;;2.88;1.63;;;;;;;18.12;100.00;95394.75;5103991;28;20079;-49
2022/11/04 10:53:10;;;;;;;2.53;1.67;;;;;;;17.39;100.00;95380.03;5100363;28;20078;-43
2022/11/04 10:55:42;;;;;;;2.75;1.48;;;;;;;17.93;100.00;95385.88;5102241;28;20096;-46
2022/11/04 10:58:17;;;;;;;3.42;1.70;;;;;;;17.99;100.00;95395.66;5106191;28;20075;-44
2022/11/04 11:00:45;;;;;;;6.15;1.70;;;;;;;17.98;100.00;95400.19;5098076;28;20454;-51
2022/11/04 11:03:26;;;;;;;3.47;1.85;;;;;;;18.16;100.00;95399.41;5097117;28;20536;-48
2022/11/04 11:05:57;;;;;;;2.83;1.92;;;;;;;18.13;100.00;95404.38;5103388;28;20083;-45
2022/11/04 11:08:30;;;;;;;3.28;2.20;;;;;;;18.56;100.00;95396.41;5100922;28;20090;-43
2022/11/04 11:10:58;;;;;;;2.58;1.73;;;;;;;18.09;100.00;95393.31;5100252;28;20076;-44
2022/11/04 11:13:34;;;;;;;2.47;1.80;;;;;;;17.95;100.00;95392.59;5099807;28;20454;-50
2022/11/04 11:16:08;;;;;;;3.08;1.48;;;;;;;17.20;100.00;95395.06;5100997;28;20083;-46
2022/11/04 11:18:37;;;;;;;3.08;1.70;;;;;;;17.86;100.00;95393.91;5098284;28;20087;-43
2022/11/04 11:21:11;;;;;;;2.78;1.40;;;;;;;16.97;100.00;95394.78;5097311;28;20083;-49
2022/11/04 11:23:44;;;;;;;2.80;1.80;;;;;;;17.18;100.00;95399.81;5096063;28;20063;-47
2022/11/04 11:26:14;;;;;;;4.45;1.70;;;;;;;17.31;100.00;95394.41;5104276;28;20082;-46
2022/11/04 11:28:48;;;;;;;2.20;1.50;;;;;;;17.36;100.00;95408.94;5095886;28;20106;-43
2022/11/04 11:31:25;;;;;;;2.97;1.77;;;;;;;17.00;100.00;95415.66;5095325;28;20075;-45
2022/11/04 11:33:56;;;;;;;3.13;1.45;;;;;;;16.83;100.00;95421.44;5096758;28;20149;-49
2022/11/04 11:36:26;;;;;;;2.63;1.80;;;;;;;17.48;100.00;95421.41;5102891;28;20071;-43
2022/11/04 11:39:02;;;;;;;2.60;1.73;;;;;;;17.16;100.00;95420.50;5104503;28;20047;-43
2022/11/04 11:41:32;;;;;;;4.35;1.60;;;;;;;16.98;100.00;95412.38;5100993;28;20074;-44
2022/11/04 11:44:03;;;;;;;3.83;1.90;;;;;;;16.93;100.00;95414.84;5106189;28;20079;-48
2022/11/04 11:46:34;;;;;;;3.55;2.05;;;;;;;17.60;100.00;95412.72;5102407;28;20078;-47
2022/11/04 11:49:03;;;;;;;;;;;;;;;17.53;100.00;95416.22;5105586;28;20072;-50
2022/11/04 11:51:33;;;;;;;3.80;1.73;;;;;;;17.19;100.00;95424.59;5097138;28;19985;-43
2022/11/04 11:54:15;;;;;;;2.50;1.77;;;;;;;18.18;100.00;95425.91;5104929;28;20072;-50
2022/11/04 11:56:48;;;;;;;2.65;1.80;;;;;;;17.49;100.00;95420.34;5076479;28;20430;-47
2022/11/04 11:59:44;;;;;;;2.95;1.75;;;;;;;17.51;100.00;95415.63;5099918;28;20087;-47
2022/11/04 12:02:38;;;;;;;4.07;1.38;;;;;;;17.40;100.00;95402.16;5098203;28;20086;-48
2022/11/04 12:05:09;;;;;;;3.13;1.65;;;;;;;17.32;100.00;95401.38;5102867;28;20517;-47
2022/11/04 12:08:02;;;;;;;5.10;1.92;;;;;;;18.00;100.00;95405.31;5100366;28;20067;-46
2022/11/04 12:10:57;;;;;;;2.90;1.60;;;;;;;17.39;100.00;95408.53;5097943;28;20083;-46
2022/11/04 12:13:27;;;;;;;3.50;1.67;;;;;;;17.60;100.00;95410.06;5095269;28;20728;-46
2022/11/04 12:16:09;;;;;;;2.25;1.73;;;;;;;18.09;100.00;95404.00;5095239;28;20518;-47
2022/11/04 12:19:03;;;;;;;3.65;1.80;;;;;;;18.07;100.00;95406.06;5094678;28;20076;-47
2022/11/04 12:21:33;;;;;;;2.67;1.83;;;;;;;18.59;100.00;95413.84;5100040;28;20075;-45